createdAt,value
2023-12-07T00:00:06.456Z,-0.15
2023-12-07T00:00:16.448Z,-0.15
2023-12-07T00:00:26.431Z,-0.17
2023-12-07T00:00:36.440Z,-0.17
2023-12-07T00:00:46.435Z,-0.18
2023-12-07T00:00:56.504Z,-0.18
2023-12-07T00:01:06.509Z,-0.18
2023-12-07T00:01:16.476Z,-0.18
2023-12-07T00:01:26.502Z,-0.17
2023-12-07T00:01:36.526Z,-0.18
2023-12-07T00:01:46.507Z,-0.18
2023-12-07T00:01:56.494Z,-0.17
2023-12-07T00:02:14.280Z,-0.18
2023-12-07T00:02:16.472Z,-0.17
2023-12-07T00:02:26.753Z,-0.18
2023-12-07T00:02:46.440Z,-0.15
2023-12-07T00:02:56.477Z,-0.17
2023-12-07T00:03:06.487Z,-0.17
2023-12-07T00:03:16.492Z,-0.17
2023-12-07T00:03:26.474Z,-0.18
2023-12-07T00:03:36.465Z,-0.17
2023-12-07T00:03:46.448Z,-0.18
2023-12-07T00:03:56.472Z,-0.18
2023-12-07T00:04:06.444Z,-0.17
2023-12-07T00:04:16.486Z,-0.17
2023-12-07T00:04:26.494Z,-0.17
2023-12-07T00:04:36.473Z,-0.18
2023-12-07T00:04:46.460Z,-0.15
2023-12-07T00:04:56.462Z,-0.17
2023-12-07T00:05:06.452Z,-0.17
2023-12-07T00:05:16.452Z,-0.17
2023-12-07T00:05:26.466Z,-0.17
2023-12-07T00:05:36.487Z,-0.15
2023-12-07T00:05:46.468Z,-0.17
2023-12-07T00:06:06.517Z,-0.17
2023-12-07T00:06:16.513Z,-0.15
2023-12-07T00:06:26.477Z,-0.17
2023-12-07T00:06:36.456Z,-0.17
2023-12-07T00:06:46.467Z,-0.17
2023-12-07T00:06:56.485Z,-0.17
2023-12-07T00:07:06.540Z,-0.17
2023-12-07T00:07:16.520Z,-0.15
2023-12-07T00:07:26.493Z,-0.15
2023-12-07T00:07:36.496Z,-0.17
2023-12-07T00:07:46.498Z,-0.18
2023-12-07T00:07:56.475Z,-0.19
2023-12-07T00:08:06.463Z,-0.18
2023-12-07T00:08:16.463Z,-0.18
2023-12-07T00:08:26.475Z,-0.18
2023-12-07T00:08:36.471Z,-0.19
2023-12-07T00:08:56.472Z,-0.19
2023-12-07T00:09:06.483Z,-0.17
2023-12-07T00:09:16.467Z,-0.17
2023-12-07T00:09:26.483Z,-0.19
2023-12-07T00:09:36.469Z,-0.17
2023-12-07T00:09:46.485Z,-0.17
2023-12-07T00:09:56.482Z,-0.19
2023-12-07T00:10:06.534Z,-0.19
2023-12-07T00:10:16.517Z,-0.19
2023-12-07T00:10:26.487Z,-0.21
2023-12-07T00:10:36.530Z,-0.17
2023-12-07T00:10:46.493Z,-0.18
2023-12-07T00:10:56.472Z,-0.19
2023-12-07T00:11:06.474Z,-0.17
2023-12-07T00:11:16.485Z,-0.17
2023-12-07T00:11:26.473Z,-0.17
2023-12-07T00:11:36.488Z,-0.17
2023-12-07T00:11:46.475Z,-0.15
2023-12-07T00:11:56.503Z,-0.17
2023-12-07T00:12:06.519Z,-0.15
2023-12-07T00:12:16.547Z,-0.15
2023-12-07T00:12:26.937Z,-0.17
2023-12-07T00:12:36.491Z,-0.14
2023-12-07T00:12:46.546Z,-0.15
2023-12-07T00:12:56.504Z,-0.14
2023-12-07T00:13:06.524Z,-0.14
2023-12-07T00:13:16.522Z,-0.14
2023-12-07T00:13:26.503Z,-0.15
2023-12-07T00:13:36.543Z,-0.14
2023-12-07T00:13:46.486Z,-0.15
2023-12-07T00:13:56.487Z,-0.15
2023-12-07T00:14:06.488Z,-0.15
2023-12-07T00:14:26.508Z,-0.15
2023-12-07T00:14:36.506Z,-0.15
2023-12-07T00:14:46.494Z,-0.17
2023-12-07T00:14:56.496Z,-0.19
2023-12-07T00:15:06.507Z,-0.19
2023-12-07T00:15:16.566Z,-0.19
2023-12-07T00:15:26.506Z,-0.18
2023-12-07T00:15:36.527Z,-0.19
2023-12-07T00:15:56.541Z,-0.21
2023-12-07T00:16:06.541Z,-0.19
2023-12-07T00:16:16.522Z,-0.19
2023-12-07T00:16:26.526Z,-0.19
2023-12-07T00:16:36.544Z,-0.19
2023-12-07T00:16:46.517Z,-0.18
2023-12-07T00:16:56.529Z,-0.18
2023-12-07T00:17:06.502Z,-0.21
2023-12-07T00:17:16.631Z,-0.18
2023-12-07T00:17:26.509Z,-0.18
2023-12-07T00:17:36.505Z,-0.19
2023-12-07T00:17:56.512Z,-0.19
2023-12-07T00:18:06.539Z,-0.19
2023-12-07T00:18:16.547Z,-0.21
2023-12-07T00:18:26.547Z,-0.21
2023-12-07T00:18:36.605Z,-0.19
2023-12-07T00:18:46.547Z,-0.21
2023-12-07T00:18:56.516Z,-0.19
2023-12-07T00:19:06.561Z,-0.21
2023-12-07T00:19:16.527Z,-0.21
2023-12-07T00:19:36.808Z,-0.21
2023-12-07T00:19:46.526Z,-0.19
2023-12-07T00:19:56.512Z,-0.21
2023-12-07T00:20:06.521Z,-0.21
2023-12-07T00:20:16.535Z,-0.19
2023-12-07T00:20:26.533Z,-0.19
2023-12-07T00:20:46.527Z,-0.17
2023-12-07T00:20:56.540Z,-0.17
2023-12-07T00:21:06.541Z,-0.18
2023-12-07T00:21:16.530Z,-0.18
2023-12-07T00:21:26.534Z,-0.18
2023-12-07T00:21:36.526Z,-0.18
2023-12-07T00:21:46.531Z,-0.18
2023-12-07T00:21:56.585Z,-0.18
2023-12-07T00:22:06.606Z,-0.15
2023-12-07T00:22:16.586Z,-0.17
2023-12-07T00:22:26.946Z,-0.18
2023-12-07T00:22:36.579Z,-0.18
2023-12-07T00:22:46.590Z,-0.17
2023-12-07T00:23:06.586Z,-0.17
2023-12-07T00:23:16.533Z,-0.15
2023-12-07T00:23:26.535Z,-0.17
2023-12-07T00:23:36.559Z,-0.15
2023-12-07T00:23:46.537Z,-0.17
2023-12-07T00:23:56.535Z,-0.17
2023-12-07T00:24:06.547Z,-0.14
2023-12-07T00:24:16.546Z,-0.14
2023-12-07T00:24:26.538Z,-0.17
2023-12-07T00:24:46.544Z,-0.14
2023-12-07T00:24:56.571Z,-0.17
2023-12-07T00:25:06.592Z,-0.17
2023-12-07T00:25:16.590Z,-0.18
2023-12-07T00:25:26.618Z,-0.18
2023-12-07T00:25:36.599Z,-0.18
2023-12-07T00:25:46.552Z,-0.17
2023-12-07T00:25:57.363Z,-0.18
2023-12-07T00:26:06.551Z,-0.18
2023-12-07T00:26:16.554Z,-0.19
2023-12-07T00:26:26.571Z,-0.19
2023-12-07T00:26:36.564Z,-0.18
2023-12-07T00:26:46.545Z,-0.18
2023-12-07T00:26:56.591Z,-0.19
2023-12-07T00:27:06.613Z,-0.18
2023-12-07T00:27:16.551Z,-0.18
2023-12-07T00:27:26.560Z,-0.18
2023-12-07T00:27:36.550Z,-0.17
2023-12-07T00:27:46.554Z,-0.17
2023-12-07T00:28:06.672Z,-0.18
2023-12-07T00:28:16.606Z,-0.17
2023-12-07T00:28:26.598Z,-0.17
2023-12-07T00:28:36.587Z,-0.17
2023-12-07T00:28:46.587Z,-0.17
2023-12-07T00:28:56.567Z,-0.17
2023-12-07T00:29:06.557Z,-0.17
2023-12-07T00:29:16.594Z,-0.18
2023-12-07T00:29:26.560Z,-0.18
2023-12-07T00:29:36.564Z,-0.19
2023-12-07T00:29:56.567Z,-0.18
2023-12-07T00:30:06.565Z,-0.19
2023-12-07T00:30:16.592Z,-0.18
2023-12-07T00:30:26.585Z,-0.18
2023-12-07T00:30:36.568Z,-0.19
2023-12-07T00:30:46.570Z,-0.18
2023-12-07T00:30:56.582Z,-0.18
2023-12-07T00:31:06.596Z,-0.18
2023-12-07T00:31:16.643Z,-0.18
2023-12-07T00:31:26.599Z,-0.18
2023-12-07T00:31:36.604Z,-0.17
2023-12-07T00:31:46.568Z,-0.18
2023-12-07T00:31:56.592Z,-0.19
2023-12-07T00:32:06.588Z,-0.19
2023-12-07T00:32:16.628Z,-0.19
2023-12-07T00:32:26.901Z,-0.19
2023-12-07T00:32:36.587Z,-0.18
2023-12-07T00:32:46.575Z,-0.18
2023-12-07T00:32:56.576Z,-0.18
2023-12-07T00:33:16.578Z,-0.17
2023-12-07T00:33:26.586Z,-0.17
2023-12-07T00:33:36.582Z,-0.18
2023-12-07T00:33:46.579Z,-0.17
2023-12-07T00:33:56.581Z,-0.17
2023-12-07T00:34:06.602Z,-0.15
2023-12-07T00:34:16.692Z,-0.17
2023-12-07T00:34:26.662Z,-0.17
2023-12-07T00:34:36.660Z,-0.18
2023-12-07T00:34:46.667Z,-0.17
2023-12-07T00:34:56.733Z,-0.19
2023-12-07T00:35:06.626Z,-0.19
2023-12-07T00:35:16.628Z,-0.19
2023-12-07T00:35:26.666Z,-0.18
2023-12-07T00:35:36.652Z,-0.19
2023-12-07T00:35:46.592Z,-0.19
2023-12-07T00:35:56.607Z,-0.19
2023-12-07T00:36:06.625Z,-0.19
2023-12-07T00:36:16.603Z,-0.21
2023-12-07T00:36:26.590Z,-0.18
2023-12-07T00:36:36.596Z,-0.18
2023-12-07T00:36:56.617Z,-0.15
2023-12-07T00:37:06.629Z,-0.17
2023-12-07T00:37:16.627Z,-0.17
2023-12-07T00:37:26.639Z,-0.18
2023-12-07T00:37:36.643Z,-0.18
2023-12-07T00:37:46.612Z,-0.18
2023-12-07T00:37:56.595Z,-0.18
2023-12-07T00:38:16.599Z,-0.19
2023-12-07T00:38:26.604Z,-0.19
2023-12-07T00:38:36.601Z,-0.18
2023-12-07T00:38:46.610Z,-0.19
2023-12-07T00:38:56.602Z,-0.19
2023-12-07T00:39:06.603Z,-0.21
2023-12-07T00:39:16.608Z,-0.19
2023-12-07T00:39:26.616Z,-0.19
2023-12-07T00:39:36.616Z,-0.18
2023-12-07T00:39:46.653Z,-0.18
2023-12-07T00:39:56.637Z,-0.18
2023-12-07T00:40:06.649Z,-0.18
2023-12-07T00:40:16.679Z,-0.19
2023-12-07T00:40:26.644Z,-0.19
2023-12-07T00:40:46.616Z,-0.21
2023-12-07T00:40:56.620Z,-0.18
2023-12-07T00:41:06.618Z,-0.19
2023-12-07T00:41:16.658Z,-0.19
2023-12-07T00:41:26.631Z,-0.19
2023-12-07T00:41:36.620Z,-0.19
2023-12-07T00:41:46.620Z,-0.18
2023-12-07T00:41:56.619Z,-0.17
2023-12-07T00:42:06.644Z,-0.18
2023-12-07T00:42:16.614Z,-0.17
2023-12-07T00:42:36.639Z,-0.18
2023-12-07T00:42:46.637Z,-0.18
2023-12-07T00:42:56.637Z,-0.18
2023-12-07T00:43:06.676Z,-0.18
2023-12-07T00:43:16.659Z,-0.19
2023-12-07T00:43:26.637Z,-0.19
2023-12-07T00:43:46.627Z,-0.18
2023-12-07T00:43:56.638Z,-0.19
2023-12-07T00:44:06.635Z,-0.18
2023-12-07T00:44:16.633Z,-0.19
2023-12-07T00:44:26.638Z,-0.19
2023-12-07T00:44:36.634Z,-0.19
2023-12-07T00:44:46.635Z,-0.17
2023-12-07T00:44:56.636Z,-0.17
2023-12-07T00:45:06.629Z,-0.18
2023-12-07T00:45:16.648Z,-0.17
2023-12-07T00:45:26.643Z,-0.19
2023-12-07T00:45:36.633Z,-0.19
2023-12-07T00:45:46.643Z,-0.19
2023-12-07T00:45:56.679Z,-0.18
2023-12-07T00:46:16.699Z,-0.19
2023-12-07T00:46:26.682Z,-0.19
2023-12-07T00:46:36.668Z,-0.19
2023-12-07T00:46:46.657Z,-0.18
2023-12-07T00:46:56.652Z,-0.18
2023-12-07T00:47:06.680Z,-0.18
2023-12-07T00:47:16.680Z,-0.17
2023-12-07T00:47:26.655Z,-0.18
2023-12-07T00:47:36.648Z,-0.18
2023-12-07T00:47:46.665Z,-0.17
2023-12-07T00:47:56.690Z,-0.17
2023-12-07T00:48:16.672Z,-0.17
2023-12-07T00:48:26.673Z,-0.17
2023-12-07T00:48:36.697Z,-0.14
2023-12-07T00:48:46.690Z,-0.15
2023-12-07T00:48:56.687Z,-0.17
2023-12-07T00:49:06.683Z,-0.15
2023-12-07T00:49:16.684Z,-0.18
2023-12-07T00:49:26.685Z,-0.17
2023-12-07T00:49:36.711Z,-0.18
2023-12-07T00:49:46.661Z,-0.18
2023-12-07T00:49:56.662Z,-0.18
2023-12-07T00:50:06.662Z,-0.19
2023-12-07T00:50:16.672Z,-0.19
2023-12-07T00:50:26.678Z,-0.21
2023-12-07T00:50:36.691Z,-0.22
2023-12-07T00:50:46.676Z,-0.22
2023-12-07T00:50:56.684Z,-0.24
2023-12-07T00:51:06.664Z,-0.24
2023-12-07T00:51:16.667Z,-0.24
2023-12-07T00:51:26.675Z,-0.24
2023-12-07T00:51:36.668Z,-0.24
2023-12-07T00:51:46.710Z,-0.22
2023-12-07T00:51:56.706Z,-0.22
2023-12-07T00:52:06.716Z,-0.25
2023-12-07T00:52:16.784Z,-0.22
2023-12-07T00:52:26.963Z,-0.22
2023-12-07T00:52:36.707Z,-0.21
2023-12-07T00:52:46.777Z,-0.21
2023-12-07T00:52:56.676Z,-0.22
2023-12-07T00:53:06.681Z,-0.24
2023-12-07T00:53:16.684Z,-0.22
2023-12-07T00:53:26.693Z,-0.22
2023-12-07T00:53:36.682Z,-0.22
2023-12-07T00:53:46.696Z,-0.21
2023-12-07T00:53:56.679Z,-0.21
2023-12-07T00:54:16.689Z,-0.22
2023-12-07T00:54:26.701Z,-0.22
2023-12-07T00:54:36.689Z,-0.22
2023-12-07T00:54:46.682Z,-0.22
2023-12-07T00:54:56.715Z,-0.22
2023-12-07T00:55:11.715Z,-0.24
2023-12-07T00:55:26.729Z,-0.24
2023-12-07T00:55:36.713Z,-0.22
2023-12-07T00:55:46.759Z,-0.22
2023-12-07T00:55:56.696Z,-0.22
2023-12-07T00:56:06.693Z,-0.24
2023-12-07T00:56:16.686Z,-0.24
2023-12-07T00:56:26.681Z,-0.22
2023-12-07T00:56:36.706Z,-0.21
2023-12-07T00:56:46.702Z,-0.22
2023-12-07T00:56:56.690Z,-0.24
2023-12-07T00:57:06.703Z,-0.22
2023-12-07T00:57:16.700Z,-0.21
2023-12-07T00:57:26.703Z,-0.21
2023-12-07T00:57:36.702Z,-0.21
2023-12-07T00:57:46.693Z,-0.19
2023-12-07T00:58:06.711Z,-0.19
2023-12-07T00:58:16.775Z,-0.22
2023-12-07T00:58:26.766Z,-0.19
2023-12-07T00:58:36.728Z,-0.19
2023-12-07T00:58:46.710Z,-0.21
2023-12-07T00:58:56.697Z,-0.19
2023-12-07T00:59:06.706Z,-0.21
2023-12-07T00:59:16.711Z,-0.19
2023-12-07T00:59:26.702Z,-0.19
2023-12-07T00:59:46.722Z,-0.19
2023-12-07T00:59:56.714Z,-0.19
2023-12-07T01:00:06.709Z,-0.18
2023-12-07T01:00:16.709Z,-0.19
2023-12-07T01:00:26.716Z,-0.21
2023-12-07T01:00:36.727Z,-0.21
2023-12-07T01:00:46.724Z,-0.22
2023-12-07T01:00:56.752Z,-0.22
2023-12-07T01:01:06.763Z,-0.21
2023-12-07T01:01:16.723Z,-0.22
2023-12-07T01:01:26.805Z,-0.22
2023-12-07T01:01:36.750Z,-0.22
2023-12-07T01:01:46.716Z,-0.22
2023-12-07T01:01:56.719Z,-0.22
2023-12-07T01:02:06.739Z,-0.22
2023-12-07T01:02:16.750Z,-0.22
2023-12-07T01:02:26.741Z,-0.22
2023-12-07T01:02:36.744Z,-0.22
2023-12-07T01:02:46.759Z,-0.22
2023-12-07T01:02:56.769Z,-0.24
2023-12-07T01:03:06.770Z,-0.24
2023-12-07T01:03:16.797Z,-0.24
2023-12-07T01:03:26.805Z,-0.24
2023-12-07T01:03:36.822Z,-0.22
2023-12-07T01:03:46.726Z,-0.22
2023-12-07T01:04:06.748Z,-0.21
2023-12-07T01:04:16.781Z,-0.21
2023-12-07T01:04:26.838Z,-0.22
2023-12-07T01:04:36.880Z,-0.21
2023-12-07T01:04:46.843Z,-0.21
2023-12-07T01:04:56.760Z,-0.21
2023-12-07T01:05:16.767Z,-0.19
2023-12-07T01:05:26.829Z,-0.19
2023-12-07T01:05:36.893Z,-0.21
2023-12-07T01:05:46.909Z,-0.18
2023-12-07T01:05:56.827Z,-0.19
2023-12-07T01:06:06.797Z,-0.18
2023-12-07T01:06:16.806Z,-0.19
2023-12-07T01:06:26.813Z,-0.19
2023-12-07T01:06:36.814Z,-0.19
2023-12-07T01:06:46.817Z,-0.21
2023-12-07T01:07:06.832Z,-0.21
2023-12-07T01:07:16.766Z,-0.22
2023-12-07T01:07:26.794Z,-0.24
2023-12-07T01:07:36.784Z,-0.24
2023-12-07T01:07:46.842Z,-0.25
2023-12-07T01:07:56.742Z,-0.24
2023-12-07T01:08:16.759Z,-0.22
2023-12-07T01:08:26.762Z,-0.24
2023-12-07T01:08:36.744Z,-0.22
2023-12-07T01:08:46.746Z,-0.24
2023-12-07T01:08:56.748Z,-0.22
2023-12-07T01:09:06.751Z,-0.24
2023-12-07T01:09:16.752Z,-0.24
2023-12-07T01:09:26.775Z,-0.22
2023-12-07T01:09:36.753Z,-0.25
2023-12-07T01:09:46.757Z,-0.24
2023-12-07T01:09:56.792Z,-0.22
2023-12-07T01:10:06.805Z,-0.22
2023-12-07T01:10:16.792Z,-0.24
2023-12-07T01:10:26.816Z,-0.22
2023-12-07T01:10:36.773Z,-0.22
2023-12-07T01:10:46.758Z,-0.21
2023-12-07T01:10:56.777Z,-0.21
2023-12-07T01:11:06.760Z,-0.22
2023-12-07T01:11:16.753Z,-0.22
2023-12-07T01:11:26.760Z,-0.21
2023-12-07T01:11:36.764Z,-0.18
2023-12-07T01:11:46.766Z,-0.21
2023-12-07T01:11:56.789Z,-0.22
2023-12-07T01:12:06.785Z,-0.21
2023-12-07T01:12:16.752Z,-0.22
2023-12-07T01:12:27.143Z,-0.21
2023-12-07T01:12:36.901Z,-0.24
2023-12-07T01:12:46.789Z,-0.22
2023-12-07T01:13:06.865Z,-0.22
2023-12-07T01:13:16.795Z,-0.24
2023-12-07T01:13:26.792Z,-0.22
2023-12-07T01:13:36.763Z,-0.24
2023-12-07T01:13:46.774Z,-0.22
2023-12-07T01:13:56.776Z,-0.21
2023-12-07T01:14:16.770Z,-0.22
2023-12-07T01:14:26.781Z,-0.21
2023-12-07T01:14:36.771Z,-0.22
2023-12-07T01:14:46.788Z,-0.22
2023-12-07T01:14:56.766Z,-0.22
2023-12-07T01:15:06.800Z,-0.19
2023-12-07T01:15:26.780Z,-0.24
2023-12-07T01:15:36.771Z,-0.25
2023-12-07T01:15:46.793Z,-0.25
2023-12-07T01:15:56.833Z,-0.24
2023-12-07T01:16:06.835Z,-0.24
2023-12-07T01:16:16.851Z,-0.24
2023-12-07T01:16:26.815Z,-0.24
2023-12-07T01:16:36.847Z,-0.24
2023-12-07T01:16:56.804Z,-0.22
2023-12-07T01:17:06.814Z,-0.24
2023-12-07T01:17:16.776Z,-0.22
2023-12-07T01:17:26.804Z,-0.25
2023-12-07T01:17:36.795Z,-0.25
2023-12-07T01:17:46.801Z,-0.24
2023-12-07T01:18:07.218Z,-0.25
2023-12-07T01:18:16.811Z,-0.25
2023-12-07T01:18:36.807Z,-0.28
2023-12-07T01:18:46.862Z,-0.25
2023-12-07T01:18:56.809Z,-0.24
2023-12-07T01:19:16.823Z,-0.29
2023-12-07T01:19:26.792Z,-0.28
2023-12-07T01:19:36.887Z,-0.25
2023-12-07T01:19:47.669Z,-0.25
2023-12-07T01:19:56.785Z,-0.28
2023-12-07T01:20:06.785Z,-0.29
2023-12-07T01:20:26.793Z,-0.29
2023-12-07T01:20:36.797Z,-0.29
2023-12-07T01:20:46.873Z,-0.29
2023-12-07T01:20:56.821Z,-0.30
2023-12-07T01:21:06.819Z,-0.29
2023-12-07T01:21:16.826Z,-0.30
2023-12-07T01:21:36.816Z,-0.30
2023-12-07T01:21:46.793Z,-0.29
2023-12-07T01:21:56.809Z,-0.29
2023-12-07T01:22:06.822Z,-0.29
2023-12-07T01:22:16.855Z,-0.28
2023-12-07T01:22:27.025Z,-0.29
2023-12-07T01:22:36.817Z,-0.28
2023-12-07T01:22:46.805Z,-0.28
2023-12-07T01:22:56.805Z,-0.28
2023-12-07T01:23:17.063Z,-0.29
2023-12-07T01:23:26.798Z,-0.29
2023-12-07T01:23:36.879Z,-0.29
2023-12-07T01:23:46.859Z,-0.29
2023-12-07T01:24:02.346Z,-0.28
2023-12-07T01:24:15.423Z,-0.29
2023-12-07T01:24:17.874Z,-0.28
2023-12-07T01:24:26.850Z,-0.28
2023-12-07T01:24:36.868Z,-0.28
2023-12-07T01:24:46.904Z,-0.28
2023-12-07T01:24:56.905Z,-0.28
2023-12-07T01:25:16.866Z,-0.30
2023-12-07T01:25:26.936Z,-0.30
2023-12-07T01:25:36.901Z,-0.29
2023-12-07T01:25:46.937Z,-0.32
2023-12-07T01:25:56.875Z,-0.29
2023-12-07T01:26:06.884Z,-0.32
2023-12-07T01:26:16.816Z,-0.32
2023-12-07T01:26:36.832Z,-0.30
2023-12-07T01:26:46.826Z,-0.29
2023-12-07T01:26:56.849Z,-0.32
2023-12-07T01:27:06.867Z,-0.30
2023-12-07T01:27:16.824Z,-0.30
2023-12-07T01:27:26.821Z,-0.29
2023-12-07T01:27:36.835Z,-0.29
2023-12-07T01:27:46.822Z,-0.29
2023-12-07T01:27:56.840Z,-0.29
2023-12-07T01:28:16.862Z,-0.30
2023-12-07T01:28:26.926Z,-0.29
2023-12-07T01:28:36.869Z,-0.30
2023-12-07T01:28:46.835Z,-0.32
2023-12-07T01:28:56.829Z,-0.30
2023-12-07T01:29:06.833Z,-0.30
2023-12-07T01:29:16.845Z,-0.30
2023-12-07T01:29:26.834Z,-0.33
2023-12-07T01:29:36.839Z,-0.32
2023-12-07T01:29:46.876Z,-0.30
2023-12-07T01:29:56.923Z,-0.32
2023-12-07T01:30:06.876Z,-0.32
2023-12-07T01:30:16.946Z,-0.32
2023-12-07T01:30:27.715Z,-0.30
2023-12-07T01:30:36.850Z,-0.30
2023-12-07T01:30:46.848Z,-0.29
2023-12-07T01:30:56.898Z,-0.30
2023-12-07T01:31:16.863Z,-0.29
2023-12-07T01:31:26.897Z,-0.28
2023-12-07T01:31:36.893Z,-0.29
2023-12-07T01:31:46.865Z,-0.32
2023-12-07T01:31:56.866Z,-0.30
2023-12-07T01:32:06.866Z,-0.30
2023-12-07T01:32:16.853Z,-0.30
2023-12-07T01:32:27.185Z,-0.32
2023-12-07T01:32:46.893Z,-0.30
2023-12-07T01:32:56.870Z,-0.30
2023-12-07T01:33:06.904Z,-0.32
2023-12-07T01:33:16.963Z,-0.30
2023-12-07T01:33:26.926Z,-0.29
2023-12-07T01:33:36.930Z,-0.30
2023-12-07T01:33:46.899Z,-0.29
2023-12-07T01:33:56.958Z,-0.29
2023-12-07T01:34:06.946Z,-0.25
2023-12-07T01:34:26.975Z,-0.28
2023-12-07T01:34:37.031Z,-0.29
2023-12-07T01:34:47.003Z,-0.29
2023-12-07T01:34:56.937Z,-0.28
2023-12-07T01:35:06.944Z,-0.29
2023-12-07T01:35:16.860Z,-0.29
2023-12-07T01:35:26.882Z,-0.28
2023-12-07T01:35:36.877Z,-0.28
2023-12-07T01:35:46.930Z,-0.28
2023-12-07T01:35:56.877Z,-0.30
2023-12-07T01:36:06.877Z,-0.30
2023-12-07T01:36:16.870Z,-0.29
2023-12-07T01:36:26.868Z,-0.29
2023-12-07T01:36:36.873Z,-0.29
2023-12-07T01:36:46.871Z,-0.29
2023-12-07T01:36:56.933Z,-0.29
2023-12-07T01:37:06.891Z,-0.30
2023-12-07T01:37:16.911Z,-0.29
2023-12-07T01:37:26.899Z,-0.29
2023-12-07T01:37:36.944Z,-0.28
2023-12-07T01:37:46.891Z,-0.30
2023-12-07T01:37:56.878Z,-0.29
2023-12-07T01:38:06.894Z,-0.28
2023-12-07T01:38:16.874Z,-0.28
2023-12-07T01:38:26.878Z,-0.29
2023-12-07T01:38:36.917Z,-0.29
2023-12-07T01:38:46.881Z,-0.29
2023-12-07T01:38:56.892Z,-0.29
2023-12-07T01:39:06.883Z,-0.32
2023-12-07T01:39:16.878Z,-0.30
2023-12-07T01:39:26.882Z,-0.30
2023-12-07T01:39:36.907Z,-0.32
2023-12-07T01:39:46.885Z,-0.33
2023-12-07T01:39:56.935Z,-0.32
2023-12-07T01:40:07.027Z,-0.30
2023-12-07T01:40:16.959Z,-0.30
2023-12-07T01:40:26.916Z,-0.29
2023-12-07T01:40:47.033Z,-0.30
2023-12-07T01:40:56.888Z,-0.30
2023-12-07T01:41:06.891Z,-0.30
2023-12-07T01:41:16.896Z,-0.30
2023-12-07T01:41:26.903Z,-0.29
2023-12-07T01:41:36.895Z,-0.29
2023-12-07T01:41:46.888Z,-0.32
2023-12-07T01:41:56.898Z,-0.30
2023-12-07T01:42:06.892Z,-0.30
2023-12-07T01:42:16.906Z,-0.30
2023-12-07T01:42:26.992Z,-0.30
2023-12-07T01:42:36.912Z,-0.29
2023-12-07T01:42:46.902Z,-0.32
2023-12-07T01:42:56.936Z,-0.30
2023-12-07T01:43:16.966Z,-0.29
2023-12-07T01:43:26.933Z,-0.29
2023-12-07T01:43:36.956Z,-0.29
2023-12-07T01:43:46.916Z,-0.29
2023-12-07T01:43:56.912Z,-0.30
2023-12-07T01:44:06.915Z,-0.29
2023-12-07T01:44:16.912Z,-0.29
2023-12-07T01:44:26.901Z,-0.29
2023-12-07T01:44:46.907Z,-0.29
2023-12-07T01:44:56.914Z,-0.29
2023-12-07T01:45:06.907Z,-0.28
2023-12-07T01:45:16.913Z,-0.29
2023-12-07T01:45:26.911Z,-0.28
2023-12-07T01:45:36.907Z,-0.29
2023-12-07T01:45:46.914Z,-0.28
2023-12-07T01:45:56.983Z,-0.28
2023-12-07T01:46:06.964Z,-0.28
2023-12-07T01:46:26.932Z,-0.25
2023-12-07T01:46:36.968Z,-0.25
2023-12-07T01:46:46.913Z,-0.24
2023-12-07T01:46:56.931Z,-0.24
2023-12-07T01:47:06.929Z,-0.22
2023-12-07T01:47:16.934Z,-0.24
2023-12-07T01:47:26.909Z,-0.25
2023-12-07T01:47:37.127Z,-0.24
2023-12-07T01:47:46.967Z,-0.25
2023-12-07T01:47:56.972Z,-0.24
2023-12-07T01:48:07.007Z,-0.22
2023-12-07T01:48:26.983Z,-0.22
2023-12-07T01:48:36.988Z,-0.22
2023-12-07T01:48:46.945Z,-0.22
2023-12-07T01:48:56.971Z,-0.22
2023-12-07T01:49:07.019Z,-0.22
2023-12-07T01:49:16.983Z,-0.24
2023-12-07T01:49:36.958Z,-0.22
2023-12-07T01:49:46.955Z,-0.22
2023-12-07T01:49:56.936Z,-0.22
2023-12-07T01:50:07.026Z,-0.24
2023-12-07T01:50:16.935Z,-0.24
2023-12-07T01:50:26.933Z,-0.25
2023-12-07T01:50:36.935Z,-0.28
2023-12-07T01:50:46.938Z,-0.25
2023-12-07T01:50:56.962Z,-0.25
2023-12-07T01:51:06.942Z,-0.28
2023-12-07T01:51:16.942Z,-0.25
2023-12-07T01:51:26.942Z,-0.29
2023-12-07T01:51:36.968Z,-0.29
2023-12-07T01:51:46.937Z,-0.29
2023-12-07T01:51:56.959Z,-0.29
2023-12-07T01:52:06.947Z,-0.28
2023-12-07T01:52:16.955Z,-0.29
2023-12-07T01:52:27.221Z,-0.29
2023-12-07T01:52:37.012Z,-0.29
2023-12-07T01:52:46.939Z,-0.28
2023-12-07T01:52:57.005Z,-0.28
2023-12-07T01:53:09.500Z,-0.28
2023-12-07T01:53:26.954Z,-0.28
2023-12-07T01:53:36.945Z,-0.28
2023-12-07T01:53:46.943Z,-0.29
2023-12-07T01:53:56.968Z,-0.25
2023-12-07T01:54:06.946Z,-0.25
2023-12-07T01:54:16.965Z,-0.28
2023-12-07T01:54:26.941Z,-0.28
2023-12-07T01:54:36.959Z,-0.28
2023-12-07T01:54:46.948Z,-0.29
2023-12-07T01:55:06.979Z,-0.28
2023-12-07T01:55:17.025Z,-0.29
2023-12-07T01:55:26.986Z,-0.28
2023-12-07T01:55:37.050Z,-0.28
2023-12-07T01:55:46.951Z,-0.28
2023-12-07T01:55:56.950Z,-0.25
2023-12-07T01:56:06.967Z,-0.28
2023-12-07T01:56:16.979Z,-0.29
2023-12-07T01:56:36.952Z,-0.29
2023-12-07T01:56:46.965Z,-0.29
2023-12-07T01:56:56.937Z,-0.28
2023-12-07T01:57:06.964Z,-0.29
2023-12-07T01:57:16.974Z,-0.29
2023-12-07T01:57:26.972Z,-0.28
2023-12-07T01:57:36.967Z,-0.28
2023-12-07T01:57:46.976Z,-0.28
2023-12-07T01:57:57.032Z,-0.29
2023-12-07T01:58:06.974Z,-0.28
2023-12-07T01:58:27.009Z,-0.28
2023-12-07T01:58:37.080Z,-0.25
2023-12-07T01:58:46.977Z,-0.28
2023-12-07T01:58:56.988Z,-0.28
2023-12-07T01:59:06.965Z,-0.25
2023-12-07T01:59:16.964Z,-0.25
2023-12-07T01:59:26.973Z,-0.25
2023-12-07T01:59:37.006Z,-0.29
2023-12-07T01:59:46.986Z,-0.29
2023-12-07T01:59:56.969Z,-0.29
2023-12-07T02:00:06.996Z,-0.29
2023-12-07T02:00:16.968Z,-0.32
2023-12-07T02:00:26.985Z,-0.30
2023-12-07T02:00:47.055Z,-0.30
2023-12-07T02:00:57.115Z,-0.30
2023-12-07T02:01:07.061Z,-0.29
2023-12-07T02:01:17.034Z,-0.30
2023-12-07T02:01:27.021Z,-0.29
2023-12-07T02:01:37.093Z,-0.29
2023-12-07T02:01:47.099Z,-0.30
2023-12-07T02:01:57.011Z,-0.29
2023-12-07T02:02:07.058Z,-0.30
2023-12-07T02:02:16.994Z,-0.30
2023-12-07T02:02:27.372Z,-0.32
2023-12-07T02:02:36.992Z,-0.30
2023-12-07T02:02:46.995Z,-0.30
2023-12-07T02:03:07.107Z,-0.29
2023-12-07T02:03:17.048Z,-0.29
2023-12-07T02:03:27.069Z,-0.29
2023-12-07T02:03:37.024Z,-0.29
2023-12-07T02:03:47.045Z,-0.30
2023-12-07T02:03:57.029Z,-0.29
2023-12-07T02:04:07.018Z,-0.28
2023-12-07T02:04:17.027Z,-0.29
2023-12-07T02:04:27.083Z,-0.29
2023-12-07T02:04:47.114Z,-0.28
2023-12-07T02:04:57.044Z,-0.28
2023-12-07T02:05:07.019Z,-0.29
2023-12-07T02:05:17.056Z,-0.29
2023-12-07T02:05:27.077Z,-0.29
2023-12-07T02:05:37.040Z,-0.30
2023-12-07T02:05:46.999Z,-0.32
2023-12-07T02:05:57.006Z,-0.29
2023-12-07T02:06:07.005Z,-0.29
2023-12-07T02:06:17.003Z,-0.32
2023-12-07T02:06:27.007Z,-0.30
2023-12-07T02:06:36.990Z,-0.30
2023-12-07T02:06:47.007Z,-0.32
2023-12-07T02:06:57.027Z,-0.32
2023-12-07T02:07:07.043Z,-0.30
2023-12-07T02:07:17.058Z,-0.32
2023-12-07T02:07:27.095Z,-0.29
2023-12-07T02:07:37.105Z,-0.30
2023-12-07T02:07:47.009Z,-0.30
2023-12-07T02:07:57.023Z,-0.29
2023-12-07T02:08:07.011Z,-0.30
2023-12-07T02:08:26.999Z,-0.29
2023-12-07T02:08:37.012Z,-0.28
2023-12-07T02:08:47.029Z,-0.29
2023-12-07T02:08:57.015Z,-0.29
2023-12-07T02:09:07.015Z,-0.28
2023-12-07T02:09:17.020Z,-0.28
2023-12-07T02:09:27.021Z,-0.28
2023-12-07T02:09:37.019Z,-0.28
2023-12-07T02:09:47.064Z,-0.28
2023-12-07T02:09:57.054Z,-0.28
2023-12-07T02:10:07.039Z,-0.25
2023-12-07T02:10:17.132Z,-0.28
2023-12-07T02:10:27.036Z,-0.28
2023-12-07T02:10:37.049Z,-0.25
2023-12-07T02:10:47.119Z,-0.25
2023-12-07T02:10:57.041Z,-0.25
2023-12-07T02:11:07.016Z,-0.25
2023-12-07T02:11:27.021Z,-0.25
2023-12-07T02:11:37.026Z,-0.24
2023-12-07T02:11:47.028Z,-0.22
2023-12-07T02:11:57.028Z,-0.25
2023-12-07T02:12:07.034Z,-0.25
2023-12-07T02:12:17.044Z,-0.25
2023-12-07T02:12:27.258Z,-0.25
2023-12-07T02:12:37.037Z,-0.28
2023-12-07T02:12:47.029Z,-0.25
2023-12-07T02:12:57.068Z,-0.25
2023-12-07T02:13:07.074Z,-0.28
2023-12-07T02:13:27.092Z,-0.28
2023-12-07T02:13:37.080Z,-0.28
2023-12-07T02:13:47.039Z,-0.28
2023-12-07T02:13:57.052Z,-0.28
2023-12-07T02:14:07.042Z,-0.28
2023-12-07T02:14:17.039Z,-0.29
2023-12-07T02:14:27.052Z,-0.29
2023-12-07T02:14:47.036Z,-0.28
2023-12-07T02:14:57.049Z,-0.28
2023-12-07T02:15:07.038Z,-0.28
2023-12-07T02:15:17.056Z,-0.28
2023-12-07T02:15:27.086Z,-0.29
2023-12-07T02:15:37.042Z,-0.28
2023-12-07T02:15:47.049Z,-0.29
2023-12-07T02:15:57.092Z,-0.29
2023-12-07T02:16:07.101Z,-0.28
2023-12-07T02:16:27.081Z,-0.29
2023-12-07T02:16:37.089Z,-0.28
2023-12-07T02:16:47.044Z,-0.28
2023-12-07T02:16:57.043Z,-0.30
2023-12-07T02:17:07.043Z,-0.28
2023-12-07T02:17:17.059Z,-0.28
2023-12-07T02:17:27.042Z,-0.29
2023-12-07T02:17:37.080Z,-0.28
2023-12-07T02:17:47.059Z,-0.28
2023-12-07T02:17:57.091Z,-0.28
2023-12-07T02:18:07.126Z,-0.25
2023-12-07T02:18:27.117Z,-0.25
2023-12-07T02:18:37.107Z,-0.25
2023-12-07T02:18:47.089Z,-0.28
2023-12-07T02:18:57.147Z,-0.25
2023-12-07T02:19:07.131Z,-0.25
2023-12-07T02:19:17.176Z,-0.29